Time;durP1;ratioP1;P1;durP2;ratioP2;P2;SDS_P1;SDS_P2;PMS_P1;PMS_P2;Temp;Humidity;BMP_temperature;BMP_pressure;BME280_temperature;BME280_humidity;BME280_pressure;Samples;Min_cycle;Max_cycle;Signal;HPM_P1;HPM_P2
2022/07/30 00:01:34;;;;;;;4.68;1.30;;;19.40;99.90;;;;;;5099638;28;20223;-78
2022/07/30 00:04:23;;;;;;;3.33;1.30;;;19.40;99.90;;;;;;5092849;28;20235;-79
2022/07/30 00:07:12;;;;;;;2.88;1.30;;;19.40;99.90;;;;;;5094770;28;20226;-76
2022/07/30 00:10:01;;;;;;;3.47;1.40;;;19.40;99.90;;;;;;5094460;27;20365;-76
2022/07/30 00:12:51;;;;;;;1.73;1.30;;;19.40;99.90;;;;;;5093781;28;20214;-78
2022/07/30 00:15:41;;;;;;;4.43;1.58;;;19.40;99.90;;;;;;5095627;28;20223;-78
2022/07/30 00:18:29;;;;;;;4.47;1.20;;;19.40;99.90;;;;;;5095302;27;20210;-77
2022/07/30 00:21:19;;;;;;;3.90;1.45;;;19.30;99.90;;;;;;5094533;28;20220;-77
2022/07/30 00:24:24;;;;;;;3.63;1.20;;;19.40;99.90;;;;;;5095955;28;20226;-76
2022/07/30 00:27:13;;;;;;;3.97;1.30;;;19.30;99.90;;;;;;5097166;27;20364;-77
2022/07/30 00:30:03;;;;;;;4.43;1.40;;;19.20;99.90;;;;;;5097239;27;20381;-76
2022/07/30 00:32:53;;;;;;;3.17;1.30;;;19.20;99.90;;;;;;5094531;27;20714;-75
2022/07/30 00:35:41;;;;;;;4.70;1.33;;;19.20;99.90;;;;;;5109208;27;20226;-75
2022/07/30 00:38:30;;;;;;;3.42;1.40;;;19.10;99.90;;;;;;5096888;27;20314;-76
2022/07/30 00:41:19;;;;;;;6.57;1.63;;;19.10;99.90;;;;;;5093540;28;20660;-76
2022/07/30 00:44:09;;;;;;;4.90;1.58;;;19.10;99.90;;;;;;5105846;27;20226;-76
2022/07/30 00:46:57;;;;;;;4.32;1.83;;;19.10;99.90;;;;;;5092044;27;20226;-76
2022/07/30 00:49:48;;;;;;;3.90;1.40;;;19.10;99.90;;;;;;5095202;27;20280;-76
2022/07/30 00:52:38;;;;;;;2.25;1.40;;;19.00;99.90;;;;;;5092577;28;20230;-75
2022/07/30 00:55:26;;;;;;;2.42;1.55;;;19.00;99.90;;;;;;5092283;28;20231;-75
2022/07/30 00:58:15;;;;;;;2.22;1.30;;;19.00;99.90;;;;;;5100684;28;20219;-74
2022/07/30 01:01:04;;;;;;;3.25;1.40;;;19.00;99.90;;;;;;5126516;27;20220;-75
2022/07/30 01:03:53;;;;;;;3.05;1.40;;;18.90;99.90;;;;;;5099220;27;20230;-76
2022/07/30 01:06:43;;;;;;;5.20;1.30;;;19.00;99.90;;;;;;5096585;28;20226;-78
2022/07/30 01:09:31;;;;;;;1.80;1.40;;;19.00;99.90;;;;;;5098796;28;20704;-76
2022/07/30 01:12:24;;;;;;;4.88;1.50;;;18.90;99.90;;;;;;5094971;28;20675;-77
2022/07/30 01:15:13;;;;;;;2.13;1.38;;;19.00;99.90;;;;;;5094169;28;20229;-76
2022/07/30 01:18:06;;;;;;;2.95;1.30;;;18.90;99.90;;;;;;5120535;27;20210;-76
2022/07/30 01:21:04;;;;;;;4.00;1.13;;;18.90;99.90;;;;;;5101573;28;20713;-76
2022/07/30 01:23:58;;;;;;;2.15;1.45;;;18.80;99.90;;;;;;5108867;27;21030;-77
2022/07/30 01:26:49;;;;;;;3.95;1.50;;;18.80;99.90;;;;;;5097781;28;20658;-76
2022/07/30 01:29:41;;;;;;;5.47;1.77;;;18.80;99.90;;;;;;5100865;27;20762;-76
2022/07/30 01:32:33;;;;;;;5.63;1.60;;;18.70;99.90;;;;;;5110017;27;20212;-77
2022/07/30 01:35:24;;;;;;;2.92;1.30;;;18.70;99.90;;;;;;5093372;28;20222;-76
2022/07/30 01:38:15;;;;;;;2.65;1.40;;;18.70;99.90;;;;;;5094544;28;21009;-78
2022/07/30 01:41:06;;;;;;;3.15;1.45;;;18.80;99.90;;;;;;5096586;28;20233;-77
2022/07/30 01:43:57;;;;;;;2.50;1.50;;;18.70;99.90;;;;;;5120902;27;20228;-77
2022/07/30 01:46:47;;;;;;;2.85;1.38;;;18.70;99.90;;;;;;5098278;28;20227;-76
2022/07/30 01:49:38;;;;;;;2.50;1.50;;;18.70;99.90;;;;;;5110624;27;20227;-77
2022/07/30 01:52:29;;;;;;;4.57;1.60;;;18.70;99.90;;;;;;5099827;28;20227;-76
2022/07/30 01:55:30;;;;;;;4.07;1.30;;;18.80;99.90;;;;;;5097670;28;20223;-77
2022/07/30 01:58:21;;;;;;;3.40;1.20;;;18.70;99.90;;;;;;5108612;27;20941;-77
2022/07/30 02:01:19;;;;;;;2.67;1.45;;;18.70;99.90;;;;;;5094276;28;20219;-77
2022/07/30 02:04:08;;;;;;;6.75;2.00;;;18.70;99.90;;;;;;5095242;28;20229;-78
2022/07/30 02:07:02;;;;;;;1.70;1.48;;;18.70;99.90;;;;;;5096553;28;20237;-78
2022/07/30 02:09:58;;;;;;;1.90;1.27;;;18.80;99.90;;;;;;5094536;28;20226;-78
2022/07/30 02:12:52;;;;;;;6.95;1.50;;;18.80;99.90;;;;;;5107742;27;20295;-78
2022/07/30 02:15:48;;;;;;;1.67;1.13;;;18.70;99.90;;;;;;5094406;28;20699;-79
2022/07/30 02:18:43;;;;;;;2.25;1.60;;;18.70;99.90;;;;;;5102414;27;20304;-77
2022/07/30 02:21:40;;;;;;;4.30;1.75;;;18.60;99.90;;;;;;5092431;27;20311;-77
2022/07/30 02:24:41;;;;;;;2.42;1.55;;;18.60;99.90;;;;;;5111187;27;20227;-77
2022/07/30 02:27:32;;;;;;;4.07;1.50;;;18.60;99.90;;;;;;5110378;27;20276;-77
2022/07/30 02:30:26;;;;;;;2.75;1.50;;;18.50;99.90;;;;;;5101932;27;20218;-78
2022/07/30 02:33:18;;;;;;;2.20;1.30;;;18.50;99.90;;;;;;5101581;27;20207;-77
2022/07/30 02:36:10;;;;;;;4.72;1.50;;;18.60;99.90;;;;;;5096614;28;20332;-78
2022/07/30 02:38:59;;;;;;;3.50;1.40;;;18.50;99.90;;;;;;5098465;28;20725;-78
2022/07/30 02:41:50;;;;;;;3.42;1.50;;;18.60;99.90;;;;;;5100832;27;20310;-77
2022/07/30 02:44:42;;;;;;;2.90;1.60;;;18.60;99.90;;;;;;5123433;27;20231;-78
2022/07/30 02:47:32;;;;;;;3.88;1.52;;;18.50;99.90;;;;;;5106863;27;20218;-77
2022/07/30 02:50:24;;;;;;;1.92;1.40;;;18.50;99.90;;;;;;5115834;27;20796;-76
2022/07/30 02:53:17;;;;;;;2.53;1.48;;;18.40;99.90;;;;;;5115851;27;20230;-78
2022/07/30 02:56:08;;;;;;;2.15;1.60;;;18.40;99.90;;;;;;5123516;27;20272;-78
2022/07/30 02:58:58;;;;;;;7.70;1.52;;;18.40;99.90;;;;;;5100878;27;20219;-79
2022/07/30 03:01:48;;;;;;;2.15;1.30;;;18.30;99.90;;;;;;5091978;27;20212;-79
2022/07/30 03:04:38;;;;;;;3.22;1.35;;;18.30;99.90;;;;;;5094234;27;20688;-78
2022/07/30 03:07:28;;;;;;;6.35;1.83;;;18.40;99.90;;;;;;5095707;27;20225;-77
2022/07/30 03:10:18;;;;;;;3.85;1.63;;;18.40;99.90;;;;;;5109957;27;20215;-77
2022/07/30 03:13:09;;;;;;;3.25;1.88;;;18.40;99.90;;;;;;5095230;27;21142;-76
2022/07/30 03:15:59;;;;;;;3.63;1.48;;;18.30;99.90;;;;;;5113230;27;20766;-78
2022/07/30 03:18:49;;;;;;;2.25;1.38;;;18.30;99.90;;;;;;5107610;27;20223;-77
2022/07/30 03:21:42;;;;;;;1.75;1.30;;;18.40;99.90;;;;;;5094417;27;20231;-77
2022/07/30 03:24:32;;;;;;;2.00;1.40;;;18.40;99.90;;;;;;5098624;27;20267;-78
2022/07/30 03:27:23;;;;;;;3.53;1.35;;;18.40;99.90;;;;;;5103774;27;20219;-76
2022/07/30 03:30:13;;;;;;;5.05;1.55;;;18.40;99.90;;;;;;5109675;27;20337;-76
2022/07/30 03:33:02;;;;;;;5.03;1.40;;;18.40;99.90;;;;;;5095151;27;20222;-77
2022/07/30 03:35:52;;;;;;;6.68;1.80;;;18.40;99.90;;;;;;5095927;27;20599;-76
2022/07/30 03:38:42;;;;;;;4.95;1.45;;;18.40;99.90;;;;;;5098999;27;20223;-77
2022/07/30 03:41:32;;;;;;;2.45;1.65;;;18.40;99.90;;;;;;5113788;27;20223;-77
2022/07/30 03:44:23;;;;;;;4.38;1.30;;;18.40;99.90;;;;;;5102795;28;20220;-76
2022/07/30 03:47:13;;;;;;;4.13;1.65;;;18.30;99.90;;;;;;5107235;27;20293;-76
2022/07/30 03:50:07;;;;;;;2.70;1.75;;;18.30;99.90;;;;;;5113276;27;20219;-75
2022/07/30 03:52:58;;;;;;;5.65;1.40;;;18.30;99.90;;;;;;5094865;27;20225;-76
2022/07/30 03:55:48;;;;;;;4.15;1.20;;;18.30;99.90;;;;;;5097284;27;20276;-77
2022/07/30 03:58:56;;;;;;;3.75;1.98;;;18.40;99.90;;;;;;5099652;27;20219;-77
2022/07/30 04:01:46;;;;;;;4.22;1.60;;;18.40;99.90;;;;;;5126060;27;20229;-78
2022/07/30 04:04:44;;;;;;;4.15;1.52;;;18.40;99.90;;;;;;5102418;27;20221;-76
2022/07/30 04:07:33;;;;;;;1.92;1.40;;;18.30;99.90;;;;;;5111419;27;20227;-77
2022/07/30 04:10:28;;;;;;;2.58;1.60;;;18.40;99.90;;;;;;5099393;27;20272;-76
2022/07/30 04:13:20;;;;;;;2.28;1.30;;;18.40;99.90;;;;;;5100734;27;20226;-77
2022/07/30 04:16:16;;;;;;;3.70;1.40;;;18.50;99.90;;;;;;5099119;27;20223;-79
2022/07/30 04:19:31;;;;;;;4.75;1.58;;;18.50;99.90;;;;;;5095220;27;20751;-78
2022/07/30 04:22:27;;;;;;;2.22;1.60;;;18.50;99.90;;;;;;5098937;27;20214;-78
2022/07/30 04:25:16;;;;;;;2.25;1.50;;;18.50;99.90;;;;;;5109712;27;20211;-78
2022/07/30 04:28:13;;;;;;;4.47;1.50;;;18.50;99.90;;;;;;5100212;27;20230;-78
2022/07/30 04:31:03;;;;;;;2.15;1.50;;;18.60;99.90;;;;;;5097084;28;20425;-78
2022/07/30 04:33:51;;;;;;;4.55;1.63;;;18.80;99.90;;;;;;5100446;27;20227;-78
2022/07/30 04:36:50;;;;;;;2.50;1.50;;;18.80;99.90;;;;;;5099892;27;20234;-77
2022/07/30 04:39:38;;;;;;;2.25;1.58;;;18.70;99.90;;;;;;5095770;27;20391;-77
2022/07/30 04:42:28;;;;;;;3.70;1.60;;;18.80;99.90;;;;;;5095011;27;20226;-78
2022/07/30 04:45:30;;;;;;;2.17;1.50;;;18.90;99.90;;;;;;5108657;27;20218;-78
2022/07/30 04:48:21;;;;;;;2.20;1.65;;;18.90;99.90;;;;;;5095626;27;20214;-78
2022/07/30 04:51:34;;;;;;;5.00;1.85;;;19.00;99.90;;;;;;5108528;27;20640;-78
2022/07/30 04:54:26;;;;;;;3.08;1.52;;;19.20;99.90;;;;;;5098523;27;20238;-79
2022/07/30 04:57:16;;;;;;;3.22;1.65;;;19.20;99.90;;;;;;5096634;28;20562;-79
2022/07/30 05:00:06;;;;;;;2.42;1.67;;;19.20;99.90;;;;;;5094751;27;20881;-79
2022/07/30 05:02:58;;;;;;;5.28;1.70;;;19.20;99.90;;;;;;5113263;27;20776;-82
2022/07/30 05:05:48;;;;;;;7.80;3.75;;;19.20;99.90;;;;;;5098499;28;20580;-78
2022/07/30 05:08:41;;;;;;;3.60;1.60;;;19.20;99.90;;;;;;5111735;27;20286;-78
2022/07/30 05:11:33;;;;;;;4.30;1.52;;;19.20;99.90;;;;;;5095971;28;20926;-78
2022/07/30 05:14:22;;;;;;;3.83;1.60;;;19.20;99.90;;;;;;5113199;27;20304;-78
2022/07/30 05:17:11;;;;;;;2.63;1.40;;;19.10;99.90;;;;;;5093242;28;20246;-77
2022/07/30 05:20:00;;;;;;;1.75;1.30;;;19.10;99.90;;;;;;5115186;27;20281;-77
2022/07/30 05:22:54;;;;;;;6.22;1.83;;;19.00;99.90;;;;;;5095638;28;20904;-77
2022/07/30 05:25:44;;;;;;;3.42;1.50;;;18.90;99.90;;;;;;5089738;28;20318;-79
2022/07/30 05:28:44;;;;;;;6.38;1.38;;;19.00;99.90;;;;;;5098961;28;20556;-76
2022/07/30 05:31:45;;;;;;;3.25;1.60;;;19.00;99.90;;;;;;5117464;27;20221;-76
2022/07/30 05:34:34;;;;;;;1.88;1.50;;;19.00;99.90;;;;;;5094143;28;20299;-77
2022/07/30 05:37:22;;;;;;;3.53;1.67;;;19.10;99.90;;;;;;5101051;28;20226;-78
2022/07/30 05:40:12;;;;;;;3.90;1.67;;;19.10;99.90;;;;;;5094697;28;20307;-77
2022/07/30 05:43:19;;;;;;;2.20;1.63;;;19.00;99.90;;;;;;5097419;27;20226;-78
2022/07/30 05:46:09;;;;;;;4.32;1.70;;;19.00;99.90;;;;;;5097170;28;20234;-78
2022/07/30 05:48:58;;;;;;;2.05;1.40;;;18.80;99.90;;;;;;5125305;27;20222;-79
2022/07/30 05:51:48;;;;;;;2.08;1.63;;;18.80;99.90;;;;;;5114140;27;20215;-78
2022/07/30 05:54:38;;;;;;;4.30;2.00;;;18.70;99.90;;;;;;5102517;27;20322;-79
2022/07/30 05:57:45;;;;;;;1.58;1.40;;;18.70;99.90;;;;;;5102420;27;20229;-77
2022/07/30 06:00:34;;;;;;;4.07;1.60;;;18.80;99.90;;;;;;5102269;27;20223;-77
2022/07/30 06:03:25;;;;;;;2.33;1.65;;;18.70;99.90;;;;;;5100949;27;20693;-78
2022/07/30 06:06:52;;;;;;;2.80;1.90;;;18.70;99.90;;;;;;5099577;27;20293;-79
2022/07/30 06:09:42;;;;;;;2.72;1.73;;;18.80;99.90;;;;;;5101177;27;20781;-78
2022/07/30 06:12:31;;;;;;;6.18;2.05;;;18.80;99.90;;;;;;5101075;27;20461;-79
2022/07/30 06:15:22;;;;;;;3.58;1.80;;;18.80;99.90;;;;;;5115277;27;20214;-76
2022/07/30 06:18:14;;;;;;;3.55;1.45;;;18.80;99.90;;;;;;5099354;27;20222;-77
2022/07/30 06:21:09;;;;;;;2.00;1.55;;;18.90;99.90;;;;;;5101821;27;20215;-73
2022/07/30 06:24:26;;;;;;;4.53;1.95;;;19.00;99.90;;;;;;5110495;27;20967;-74
2022/07/30 06:27:26;;;;;;;2.95;1.52;;;19.00;99.90;;;;;;5107284;27;20218;-75
2022/07/30 06:30:19;;;;;;;4.18;2.00;;;19.10;99.90;;;;;;5094317;27;20219;-76
2022/07/30 06:33:18;;;;;;;4.68;1.98;;;19.10;99.90;;;;;;5097634;27;20797;-75
2022/07/30 06:36:09;;;;;;;4.68;2.10;;;19.10;99.90;;;;;;5099383;27;20789;-73
2022/07/30 06:39:14;;;;;;;2.08;1.70;;;19.30;99.90;;;;;;5098926;27;20226;-75
2022/07/30 06:42:35;;;;;;;2.63;2.00;;;19.40;99.90;;;;;;5095932;28;20610;-75
2022/07/30 06:45:55;;;;;;;4.32;1.60;;;19.50;99.90;;;;;;5096986;27;20306;-76
2022/07/30 06:48:45;;;;;;;2.90;1.63;;;19.70;99.90;;;;;;5097689;28;20268;-75
2022/07/30 06:51:35;;;;;;;3.70;1.88;;;19.70;99.90;;;;;;5104540;27;20233;-75
2022/07/30 06:54:24;;;;;;;1.98;1.67;;;19.80;99.90;;;;;;5107450;27;20222;-76
2022/07/30 06:57:33;;;;;;;2.58;2.03;;;19.70;99.90;;;;;;5116309;27;20222;-75
2022/07/30 07:00:34;;;;;;;3.15;1.83;;;19.50;99.90;;;;;;5100417;27;20250;-77
2022/07/30 07:03:28;;;;;;;2.65;1.65;;;19.60;99.90;;;;;;5100751;27;20556;-75
2022/07/30 07:06:28;;;;;;;3.10;1.80;;;19.60;99.90;;;;;;5104487;27;20210;-75
2022/07/30 07:09:18;;;;;;;3.70;1.90;;;19.70;99.90;;;;;;5097792;27;20222;-75
2022/07/30 07:12:34;;;;;;;2.67;1.80;;;19.80;99.90;;;;;;5124142;27;20298;-75
2022/07/30 07:15:23;;;;;;;5.38;2.20;;;20.00;99.90;;;;;;5091699;27;20225;-75
2022/07/30 07:18:27;;;;;;;3.00;2.00;;;20.00;99.90;;;;;;5098666;27;20214;-75
2022/07/30 07:21:21;;;;;;;7.65;1.92;;;19.90;99.90;;;;;;5095972;27;20226;-73
2022/07/30 07:24:11;;;;;;;6.25;2.10;;;20.00;99.90;;;;;;5113480;27;20211;-77
2022/07/30 07:27:24;;;;;;;2.40;1.83;;;19.90;99.90;;;;;;5097521;28;20218;-77
2022/07/30 07:30:17;;;;;;;8.05;2.13;;;19.80;99.90;;;;;;5096608;27;20226;-74
2022/07/30 07:33:07;;;;;;;5.70;1.90;;;19.90;99.90;;;;;;5098644;27;20253;-76
2022/07/30 07:35:56;;;;;;;3.85;1.85;;;20.30;99.90;;;;;;5099557;27;20219;-76
2022/07/30 07:38:48;;;;;;;4.25;1.88;;;20.60;99.90;;;;;;5093255;27;20219;-74
2022/07/30 07:41:37;;;;;;;6.30;1.85;;;20.70;99.90;;;;;;5093106;27;20813;-74
2022/07/30 07:44:40;;;;;;;4.57;1.83;;;20.80;99.90;;;;;;5093624;27;20240;-75
2022/07/30 07:47:30;;;;;;;5.05;2.22;;;21.10;99.90;;;;;;5089892;27;20214;-77
2022/07/30 07:50:30;;;;;;;4.32;1.95;;;21.00;99.90;;;;;;5093356;27;20279;-76
2022/07/30 07:53:18;;;;;;;2.70;1.92;;;21.10;99.90;;;;;;5096016;27;20268;-75
2022/07/30 07:56:08;;;;;;;4.50;1.85;;;21.20;99.90;;;;;;5097825;27;21475;-76
2022/07/30 07:58:59;;;;;;;6.80;2.30;;;21.40;99.90;;;;;;5096513;27;20222;-77
2022/07/30 08:01:51;;;;;;;6.88;2.45;;;21.70;99.90;;;;;;5101532;27;20249;-76
2022/07/30 08:04:58;;;;;;;5.03;2.00;;;22.20;99.90;;;;;;5101406;27;20314;-76
2022/07/30 08:08:02;;;;;;;5.35;2.22;;;22.80;99.90;;;;;;5099206;27;20225;-75
2022/07/30 08:11:23;;;;;;;7.22;2.00;;;23.10;99.90;;;;;;5066249;27;20226;-75
2022/07/30 08:14:40;;;;;;;3.78;2.20;;;23.60;99.90;;;;;;5091558;27;20227;-76
2022/07/30 08:17:49;;;;;;;4.22;2.08;;;24.00;99.90;;;;;;5098923;27;20230;-76
2022/07/30 08:20:55;;;;;;;5.93;2.05;;;24.20;99.90;;;;;;5099614;28;20594;-74
2022/07/30 08:23:49;;;;;;;3.55;2.08;;;24.30;99.90;;;;;;5100318;28;20786;-76
2022/07/30 08:26:37;;;;;;;4.45;2.22;;;24.20;99.90;;;;;;5098876;27;20219;-76
2022/07/30 08:29:26;;;;;;;3.53;2.00;;;24.40;99.90;;;;;;5107264;27;20313;-77
2022/07/30 08:32:15;;;;;;;4.40;2.20;;;24.80;99.90;;;;;;5095389;27;20275;-75
2022/07/30 08:35:08;;;;;;;7.88;2.10;;;24.70;99.90;;;;;;5094454;28;20210;-75
2022/07/30 08:37:57;;;;;;;5.45;2.75;;;24.30;99.90;;;;;;5098120;27;20220;-77
2022/07/30 08:40:47;;;;;;;5.53;2.25;;;23.90;99.90;;;;;;5101510;27;20223;-77
2022/07/30 08:43:37;;;;;;;2.13;2.00;;;23.80;99.90;;;;;;5099944;27;20700;-75
2022/07/30 08:46:29;;;;;;;5.50;2.17;;;23.80;99.90;;;;;;5107067;27;20219;-77
2022/07/30 08:49:26;;;;;;;3.17;2.10;;;23.80;99.90;;;;;;5093831;27;20230;-75
2022/07/30 08:52:17;;;;;;;2.40;1.92;;;23.90;99.90;;;;;;5098366;28;20245;-77
2022/07/30 08:55:13;;;;;;;8.88;2.70;;;23.80;99.90;;;;;;5096177;27;20322;-75
2022/07/30 08:58:02;;;;;;;4.78;2.00;;;23.50;99.90;;;;;;5100747;28;20789;-76
2022/07/30 09:00:51;;;;;;;5.60;2.33;;;23.60;99.90;;;;;;5102097;28;20218;-77
2022/07/30 09:03:40;;;;;;;2.65;2.00;;;23.70;99.90;;;;;;5096202;28;20226;-75
2022/07/30 09:06:32;;;;;;;3.42;2.40;;;23.70;99.90;;;;;;5093259;27;20328;-77
2022/07/30 09:09:25;;;;;;;3.80;2.30;;;23.60;99.90;;;;;;5107541;27;20611;-78
2022/07/30 09:12:35;;;;;;;3.28;2.20;;;23.60;99.90;;;;;;5081814;28;20324;-77
2022/07/30 09:15:27;;;;;;;10.48;2.60;;;23.40;99.90;;;;;;5096263;28;20384;-75
2022/07/30 09:18:27;;;;;;;5.10;2.95;;;23.40;99.90;;;;;;5111007;27;20297;-80
2022/07/30 09:21:18;;;;;;;5.78;2.67;;;23.70;99.90;;;;;;5088109;28;20585;-77
2022/07/30 09:24:12;;;;;;;3.58;2.30;;;23.80;99.90;;;;;;5089003;28;20230;-76
2022/07/30 09:27:11;;;;;;;7.63;2.30;;;24.10;99.90;;;;;;5088669;27;20219;-76
2022/07/30 09:30:10;;;;;;;3.08;2.50;;;24.70;99.90;;;;;;5093428;27;20230;-75
2022/07/30 09:33:33;;;;;;;3.95;2.13;;;24.70;99.90;;;;;;5096018;27;20267;-78
2022/07/30 09:36:40;;;;;;;5.22;2.30;;;24.70;99.90;;;;;;5095796;28;20222;-76
2022/07/30 09:39:40;;;;;;;3.58;2.13;;;24.40;99.90;;;;;;5091732;27;20283;-75
2022/07/30 09:42:45;;;;;;;2.63;2.03;;;24.20;99.90;;;;;;5108202;27;20320;-76
2022/07/30 09:45:36;;;;;;;5.03;2.08;;;24.00;99.90;;;;;;5108931;27;20222;-75
2022/07/30 09:48:27;;;;;;;5.15;2.15;;;23.80;99.90;;;;;;5097999;27;20214;-77
2022/07/30 09:51:16;;;;;;;6.78;2.60;;;23.80;99.90;;;;;;5095632;27;20218;-76
2022/07/30 09:54:10;;;;;;;3.92;2.20;;;23.90;99.90;;;;;;5083978;27;20315;-76
2022/07/30 09:57:07;;;;;;;6.55;2.17;;;23.90;99.90;;;;;;5098744;27;20261;-75
2022/07/30 10:00:21;;;;;;;5.95;2.15;;;23.70;99.90;;;;;;5096067;27;20254;-78
2022/07/30 10:03:29;;;;;;;2.85;2.08;;;23.50;99.90;;;;;;5119004;27;20227;-72
2022/07/30 10:06:48;;;;;;;3.13;2.20;;;23.40;99.90;;;;;;5096913;27;20219;-73
2022/07/30 10:09:48;;;;;;;4.15;2.40;;;23.20;99.90;;;;;;5107204;27;20242;-73
2022/07/30 10:12:39;;;;;;;5.25;2.20;;;23.20;99.90;;;;;;5108234;27;20214;-75
2022/07/30 10:15:31;;;;;;;2.95;1.90;;;22.90;99.90;;;;;;5100027;27;20219;-76
2022/07/30 10:18:22;;;;;;;4.80;2.17;;;22.90;99.90;;;;;;5104896;27;20233;-77
2022/07/30 10:21:43;;;;;;;4.22;2.33;;;22.90;99.90;;;;;;5049128;27;20247;-77
2022/07/30 10:24:55;;;;;;;4.88;2.10;;;22.80;99.90;;;;;;5100233;27;20240;-76
2022/07/30 10:28:04;;;;;;;11.55;2.17;;;22.80;99.90;;;;;;5096049;27;20291;-77
2022/07/30 10:30:57;;;;;;;6.93;2.08;;;22.80;99.90;;;;;;5101895;27;20226;-74
2022/07/30 10:33:47;;;;;;;2.53;2.00;;;22.80;99.90;;;;;;5105395;27;20230;-73
2022/07/30 10:36:36;;;;;;;7.55;2.20;;;22.70;99.90;;;;;;5095900;27;20299;-75
2022/07/30 10:39:30;;;;;;;4.10;2.00;;;22.70;99.90;;;;;;5098006;27;20319;-72
2022/07/30 10:42:34;;;;;;;7.43;2.40;;;22.70;99.90;;;;;;5096975;27;20396;-74
2022/07/30 10:45:36;;;;;;;4.15;2.00;;;22.60;99.90;;;;;;5100193;27;20222;-72
2022/07/30 10:48:34;;;;;;;6.72;2.17;;;22.50;99.90;;;;;;5115390;27;20207;-73
2022/07/30 10:51:42;;;;;;;3.80;2.00;;;22.40;99.90;;;;;;5102698;27;20619;-71
2022/07/30 10:54:38;;;;;;;3.50;2.10;;;22.40;99.90;;;;;;5098542;27;20861;-72
2022/07/30 10:57:28;;;;;;;4.00;2.50;;;22.40;99.90;;;;;;5102507;27;20264;-72
2022/07/30 11:00:29;;;;;;;4.50;2.05;;;22.20;99.90;;;;;;5110094;27;20314;-73
2022/07/30 11:03:22;;;;;;;4.20;2.28;;;22.10;99.90;;;;;;5104325;27;20214;-73
2022/07/30 11:06:29;;;;;;;7.05;2.45;;;22.00;99.90;;;;;;5099724;27;20230;-73
2022/07/30 11:09:37;;;;;;;4.22;2.70;;;22.00;99.90;;;;;;5101773;27;20227;-73
2022/07/30 11:12:54;;;;;;;4.93;2.53;;;21.90;99.90;;;;;;5117021;27;20211;-73
2022/07/30 11:15:54;;;;;;;7.13;2.55;;;21.80;99.90;;;;;;5099785;27;20220;-71
2022/07/30 11:19:05;;;;;;;4.75;2.70;;;21.70;99.90;;;;;;5105965;27;20217;-73
2022/07/30 11:22:27;;;;;;;5.78;2.30;;;21.60;99.90;;;;;;5100036;27;20718;-74
2022/07/30 11:25:42;;;;;;;3.72;2.47;;;21.60;99.90;;;;;;5100769;27;20222;-74
2022/07/30 11:28:44;;;;;;;7.95;2.50;;;21.40;99.90;;;;;;5103634;27;20232;-72
2022/07/30 11:31:38;;;;;;;3.67;2.33;;;21.40;99.90;;;;;;5095791;28;20222;-73
2022/07/30 11:34:46;;;;;;;4.60;2.22;;;21.30;99.90;;;;;;5095837;28;20215;-74
2022/07/30 11:38:14;;;;;;;9.88;3.03;;;21.30;99.90;;;;;;5094079;27;20404;-73
2022/07/30 11:41:10;;;;;;;7.95;2.83;;;21.10;99.90;;;;;;5098171;28;20326;-73
2022/07/30 11:44:29;;;;;;;5.10;3.28;;;21.00;99.90;;;;;;5101616;27;20227;-74
2022/07/30 11:47:18;;;;;;;4.35;2.70;;;21.00;99.90;;;;;;5095327;27;20222;-71
2022/07/30 11:50:07;;;;;;;6.47;3.30;;;20.70;99.90;;;;;;5101618;28;20246;-73
2022/07/30 11:52:58;;;;;;;14.18;3.50;;;20.60;99.90;;;;;;5105138;27;20215;-73
2022/07/30 11:55:52;;;;;;;7.70;3.30;;;20.50;99.90;;;;;;5098000;28;20711;-73
2022/07/30 11:58:40;;;;;;;6.88;3.55;;;20.30;99.90;;;;;;5097817;27;20223;-73
2022/07/30 12:01:30;;;;;;;7.78;3.08;;;20.30;99.90;;;;;;5100584;27;20603;-74
2022/07/30 12:04:19;;;;;;;5.57;3.30;;;20.20;99.90;;;;;;5102231;27;20222;-73
2022/07/30 12:07:08;;;;;;;6.45;4.13;;;20.30;99.90;;;;;;5101479;28;20730;-73
2022/07/30 12:10:12;;;;;;;7.13;3.58;;;20.30;99.90;;;;;;5095485;27;20230;-73
2022/07/30 12:13:12;;;;;;;13.38;3.97;;;20.10;99.90;;;;;;5094009;28;20990;-73
2022/07/30 12:16:00;;;;;;;16.17;4.30;;;20.20;99.90;;;;;;5098897;27;20210;-74
2022/07/30 12:18:49;;;;;;;12.02;4.00;;;20.20;99.90;;;;;;5102912;27;20317;-73
2022/07/30 12:21:40;;;;;;;9.45;3.78;;;20.30;99.90;;;;;;5102528;27;21068;-74
2022/07/30 12:24:29;;;;;;;24.98;4.75;;;20.20;99.90;;;;;;5093929;28;20222;-76
2022/07/30 12:27:17;;;;;;;9.88;4.07;;;20.30;99.90;;;;;;5097679;28;20230;-74
2022/07/30 12:30:09;;;;;;;4.03;3.38;;;20.20;99.90;;;;;;5093058;27;20580;-74
2022/07/30 12:32:57;;;;;;;9.88;3.90;;;20.20;99.90;;;;;;5097684;27;20227;-73
2022/07/30 12:35:48;;;;;;;9.07;3.67;;;20.10;99.90;;;;;;5095582;27;20227;-74
2022/07/30 12:38:46;;;;;;;5.88;3.55;;;20.10;99.90;;;;;;5100517;28;20225;-74
2022/07/30 12:41:42;;;;;;;11.32;4.57;;;20.00;99.90;;;;;;5093394;28;20591;-74
2022/07/30 12:44:35;;;;;;;5.55;3.72;;;20.00;99.90;;;;;;5101112;27;20774;-74
2022/07/30 12:47:27;;;;;;;4.95;3.10;;;20.00;99.90;;;;;;5094204;27;20227;-73
2022/07/30 12:50:17;;;;;;;6.95;3.70;;;20.00;99.90;;;;;;5096919;27;20219;-73
2022/07/30 12:53:05;;;;;;;5.47;3.63;;;20.00;99.90;;;;;;5099454;27;20227;-71
2022/07/30 12:56:10;;;;;;;6.40;3.28;;;20.10;99.90;;;;;;5098663;27;20226;-73
2022/07/30 12:59:00;;;;;;;3.90;3.35;;;20.00;99.90;;;;;;5102033;27;20222;-73
2022/07/30 13:01:51;;;;;;;5.10;3.47;;;20.10;99.90;;;;;;5091072;28;20698;-73
2022/07/30 13:04:52;;;;;;;5.53;3.63;;;20.20;99.90;;;;;;5098200;27;20230;-73
2022/07/30 13:07:59;;;;;;;6.43;3.67;;;20.20;99.90;;;;;;5092831;28;20685;-73
2022/07/30 13:10:55;;;;;;;3.90;3.33;;;20.30;99.90;;;;;;5096071;27;20231;-73
2022/07/30 13:13:48;;;;;;;5.55;3.25;;;20.40;99.90;;;;;;5103645;27;20235;-72
2022/07/30 13:16:37;;;;;;;5.68;3.40;;;20.40;99.90;;;;;;5097672;28;20258;-73
2022/07/30 13:19:26;;;;;;;5.43;3.60;;;20.40;99.90;;;;;;5103127;28;20223;-73
2022/07/30 13:22:16;;;;;;;6.97;3.55;;;20.40;99.90;;;;;;5089257;28;20226;-74
2022/07/30 13:25:06;;;;;;;6.43;3.47;;;20.40;99.90;;;;;;5099601;28;20218;-72
2022/07/30 13:27:54;;;;;;;4.68;3.72;;;20.40;99.90;;;;;;5101588;28;20328;-72
2022/07/30 13:30:43;;;;;;;4.10;3.30;;;20.50;99.90;;;;;;5103448;28;20223;-73
2022/07/30 13:33:31;;;;;;;4.40;3.03;;;20.60;99.90;;;;;;5103332;28;20932;-73
2022/07/30 13:36:20;;;;;;;9.27;3.83;;;20.50;99.90;;;;;;5103083;28;20229;-74
2022/07/30 13:39:11;;;;;;;5.82;3.40;;;20.50;99.90;;;;;;5102867;27;20222;-74
2022/07/30 13:42:00;;;;;;;6.18;3.75;;;20.50;99.90;;;;;;5098909;28;20222;-72
2022/07/30 13:44:48;;;;;;;7.38;3.97;;;20.40;99.90;;;;;;5095616;27;20923;-74
2022/07/30 13:47:37;;;;;;;14.68;4.30;;;20.30;99.90;;;;;;5098068;28;20234;-72
2022/07/30 13:50:27;;;;;;;20.73;5.30;;;20.20;99.90;;;;;;5109609;27;20223;-74
2022/07/30 13:53:16;;;;;;;13.10;4.95;;;20.10;99.90;;;;;;5098751;27;20225;-74
2022/07/30 13:56:06;;;;;;;14.65;4.00;;;20.00;99.90;;;;;;5096849;28;20211;-74
2022/07/30 13:59:00;;;;;;;15.50;4.75;;;20.00;99.90;;;;;;5107935;27;20596;-74
2022/07/30 14:01:48;;;;;;;12.70;4.10;;;20.00;99.90;;;;;;5098361;28;20224;-73
2022/07/30 14:04:37;;;;;;;10.55;4.35;;;19.90;99.90;;;;;;5093500;27;20220;-72
2022/07/30 14:07:26;;;;;;;9.77;4.72;;;19.90;99.90;;;;;;5100515;28;20215;-74
2022/07/30 14:10:14;;;;;;;6.18;4.13;;;19.70;99.90;;;;;;5119952;27;20216;-74
2022/07/30 14:13:05;;;;;;;15.25;4.70;;;19.50;99.90;;;;;;5102990;27;20730;-72
2022/07/30 14:15:54;;;;;;;12.63;4.70;;;19.30;99.90;;;;;;5097376;27;20222;-73
2022/07/30 14:18:42;;;;;;;11.55;5.00;;;19.20;99.90;;;;;;5107979;27;20223;-72
2022/07/30 14:21:31;;;;;;;7.22;3.78;;;19.10;99.90;;;;;;5116587;27;20223;-74
2022/07/30 14:24:20;;;;;;;7.63;4.78;;;19.10;99.90;;;;;;5101782;28;20242;-74
2022/07/30 14:27:09;;;;;;;8.40;4.97;;;19.20;99.90;;;;;;5102183;27;20214;-73
2022/07/30 14:29:59;;;;;;;15.57;4.95;;;19.20;99.90;;;;;;5100207;28;20215;-72
2022/07/30 14:32:48;;;;;;;5.50;3.60;;;19.20;99.90;;;;;;5100398;27;20228;-73
2022/07/30 14:35:43;;;;;;;11.43;4.18;;;19.20;99.90;;;;;;5103057;27;20364;-73
2022/07/30 14:38:31;;;;;;;16.23;4.55;;;19.30;99.90;;;;;;5102730;27;20238;-71
2022/07/30 14:41:20;;;;;;;6.60;3.65;;;19.50;99.90;;;;;;5099801;27;20273;-72
2022/07/30 14:44:11;;;;;;;5.65;3.40;;;19.50;99.90;;;;;;5098971;27;20287;-72
2022/07/30 14:47:01;;;;;;;8.25;3.53;;;19.50;99.90;;;;;;5093753;27;20734;-72
2022/07/30 14:49:50;;;;;;;6.00;3.20;;;19.50;99.90;;;;;;5098829;27;20307;-73
2022/07/30 14:52:39;;;;;;;7.28;3.45;;;19.50;99.90;;;;;;5102012;27;20227;-71
2022/07/30 14:55:27;;;;;;;6.78;3.50;;;19.60;99.90;;;;;;5116470;27;20730;-73
2022/07/30 14:58:16;;;;;;;5.80;3.45;;;19.60;99.90;;;;;;5106206;27;20215;-72
2022/07/30 15:01:06;;;;;;;6.20;3.60;;;19.70;99.90;;;;;;5103129;27;20222;-73
2022/07/30 15:04:08;;;;;;;7.15;3.13;;;19.80;99.90;;;;;;5100333;27;20227;-73
2022/07/30 15:06:56;;;;;;;6.53;3.35;;;19.80;99.90;;;;;;5103570;27;20767;-73